Time;durP1;ratioP1;P1;durP2;ratioP2;P2;SDS_P1;SDS_P2;PMS_P1;PMS_P2;Temp;Humidity;BMP_temperature;BMP_pressure;BME280_temperature;BME280_humidity;BME280_pressure;Samples;Min_cycle;Max_cycle;Signal;HPM_P1;HPM_P2
2022/09/27 00:04:02;;;;;;;1.83;1.00;;;;;;;18.84;61.66;95056.94;10536262;28;20040;-31
2022/09/27 00:09:03;;;;;;;1.90;1.33;;;;;;;18.78;61.98;95037.69;10495203;28;20278;-29
2022/09/27 00:14:05;;;;;;;1.25;0.85;;;;;;;18.80;61.74;95041.00;10495124;28;20298;-31
2022/09/27 00:19:09;;;;;;;7.03;1.27;;;;;;;18.85;62.63;95054.34;10495782;28;20060;-30
2022/09/27 00:24:14;;;;;;;2.88;1.02;;;;;;;18.89;62.28;95037.34;10494080;28;20036;-31
2022/09/27 00:29:17;;;;;;;1.63;0.95;;;;;;;18.91;61.91;95030.56;10494166;28;20516;-30
2022/09/27 00:34:23;;;;;;;1.08;0.90;;;;;;;18.88;61.70;95017.94;10492799;28;20028;-30
2022/09/27 00:39:24;;;;;;;1.70;1.00;;;;;;;18.84;61.79;95016.38;10495388;28;20104;-31
2022/09/27 00:44:27;;;;;;;2.08;1.20;;;;;;;18.82;62.11;95023.22;10527588;28;20107;-30
2022/09/27 00:49:45;;;;;;;2.90;1.05;;;;;;;18.83;61.80;95029.94;10536249;28;20518;-30
2022/09/27 00:54:52;;;;;;;1.63;1.05;;;;;;;18.82;61.98;95039.22;10495096;28;20090;-30
2022/09/27 01:00:03;;;;;;;5.55;1.00;;;;;;;18.82;61.80;95051.09;10494601;28;20037;-30
2022/09/27 01:05:07;;;;;;;3.50;1.25;;;;;;;18.82;61.95;95059.53;10508242;28;20036;-30
2022/09/27 01:10:08;;;;;;;2.55;1.20;;;;;;;18.80;61.88;95056.19;10534222;28;20039;-31
2022/09/27 01:15:36;;;;;;;1.38;1.25;;;;;;;18.82;62.00;95076.44;10495802;28;20074;-30
2022/09/27 01:21:00;;;;;;;1.55;0.93;;;;;;;18.89;62.21;95090.59;10493889;28;20036;-30
2022/09/27 01:26:42;;;;;;;1.73;0.98;;;;;;;18.94;62.16;95086.25;10492117;28;20028;-30
2022/09/27 01:32:07;;;;;;;1.10;0.95;;;;;;;18.88;61.48;95099.06;10491572;28;20197;-30
2022/09/27 01:38:04;;;;;;;2.10;1.17;;;;;;;18.85;61.84;95109.31;10491865;28;20040;-30
2022/09/27 01:43:11;;;;;;;2.95;1.05;;;;;;;18.83;61.80;95121.22;10363701;28;20091;-30
2022/09/27 01:48:20;;;;;;;2.90;1.10;;;;;;;18.79;61.86;95125.53;10474803;28;20048;-30
2022/09/27 01:53:32;;;;;;;1.25;0.68;;;;;;;18.80;61.82;95111.97;10491300;28;20603;-30
2022/09/27 01:58:58;;;;;;;2.30;0.88;;;;;;;18.77;62.03;95116.28;10491457;28;20036;-31
2022/09/27 02:04:02;;;;;;;3.30;0.85;;;;;;;18.80;61.88;95117.03;10490598;28;20518;-30
2022/09/27 02:09:32;;;;;;;1.35;0.90;;;;;;;18.75;61.79;95115.50;10492638;28;20036;-31
2022/09/27 02:14:58;;;;;;;1.77;0.88;;;;;;;18.79;61.75;95124.69;10529300;28;20028;-30
2022/09/27 02:20:20;;;;;;;1.00;0.75;;;;;;;18.83;62.20;95121.22;10530977;28;20119;-30
2022/09/27 02:25:32;;;;;;;0.75;0.70;;;;;;;18.84;62.17;95117.81;10491591;28;20054;-30
2022/09/27 02:30:33;;;;;;;1.55;0.98;;;;;;;18.83;61.74;95131.34;10490569;28;20025;-30
2022/09/27 02:35:47;;;;;;;2.50;0.85;;;;;;;18.82;61.78;95137.28;10504105;28;20063;-29
2022/09/27 02:40:47;;;;;;;1.77;0.80;;;;;;;18.76;61.69;95137.44;10530436;28;20060;-30
2022/09/27 02:46:24;;;;;;;1.80;0.80;;;;;;;18.81;61.67;95145.75;10489681;28;20025;-30
2022/09/27 02:51:42;;;;;;;2.35;0.80;;;;;;;18.76;61.77;95139.97;10490116;28;20039;-31
2022/09/27 02:56:56;;;;;;;1.73;1.10;;;;;;;18.77;61.75;95157.66;10491985;28;20033;-30
2022/09/27 03:02:22;;;;;;;1.35;0.70;;;;;;;18.78;61.79;95163.59;10499281;28;20032;-31
2022/09/27 03:07:39;;;;;;;1.80;0.80;;;;;;;18.78;61.63;95161.91;10497127;28;20040;-30
2022/09/27 03:12:40;;;;;;;1.25;0.70;;;;;;;18.78;61.80;95161.06;10497367;28;20078;-30
2022/09/27 03:17:41;;;;;;;1.10;0.80;;;;;;;18.79;61.88;95166.09;10497925;28;20036;-30
2022/09/27 03:23:01;;;;;;;1.02;0.73;;;;;;;18.84;62.05;95160.91;10519567;28;20173;-30
2022/09/27 03:28:02;;;;;;;2.10;0.73;;;;;;;18.87;61.67;95173.50;10515457;28;20036;-30
2022/09/27 03:33:03;;;;;;;1.27;0.80;;;;;;;18.82;61.73;95181.22;10496543;28;20033;-30
2022/09/27 03:38:39;;;;;;;1.65;0.82;;;;;;;18.78;61.75;95191.47;10486022;28;20105;-31
2022/09/27 03:43:42;;;;;;;1.95;1.00;;;;;;;18.79;62.14;95175.38;10516337;28;20119;-30
2022/09/27 03:48:43;;;;;;;0.85;0.65;;;;;;;18.78;61.78;95173.72;10528922;28;20034;-30
2022/09/27 03:53:43;;;;;;;1.80;0.60;;;;;;;18.78;61.55;95178.78;10541920;28;20560;-30
2022/09/27 03:58:44;;;;;;;2.97;1.20;;;;;;;18.82;61.02;95166.00;10495175;28;20290;-30
2022/09/27 04:03:45;;;;;;;2.20;1.20;;;;;;;18.82;61.78;95175.31;10495014;28;20040;-30
2022/09/27 04:09:00;;;;;;;1.40;0.75;;;;;;;18.81;61.07;95178.69;10493746;28;20294;-31
2022/09/27 04:14:12;;;;;;;1.73;0.60;;;;;;;18.82;61.14;95191.34;10498574;28;20028;-30
2022/09/27 04:19:28;;;;;;;1.00;0.90;;;;;;;18.87;61.71;95193.78;10529619;28;20032;-31
2022/09/27 04:24:42;;;;;;;1.60;0.80;;;;;;;18.79;62.07;95185.53;10534087;28;20036;-29
2022/09/27 04:29:58;;;;;;;2.35;0.73;;;;;;;18.87;61.89;95186.16;10551703;28;20041;-30
2022/09/27 04:40:40;;;;;;;4.15;1.40;;;;;;;18.77;60.47;95205.84;10498641;28;20066;-30
2022/09/27 04:45:44;;;;;;;2.90;0.60;;;;;;;18.62;59.36;95213.00;10547429;28;20123;-31
2022/09/27 04:50:45;;;;;;;1.67;0.80;;;;;;;18.67;59.90;95228.94;10541410;28;20406;-32
2022/09/27 04:55:46;;;;;;;2.17;0.68;;;;;;;18.60;59.00;95240.09;10531718;28;20036;-30
2022/09/27 05:00:47;;;;;;;5.68;0.98;;;;;;;18.73;59.27;95241.44;10508160;28;20033;-31
2022/09/27 05:06:20;;;;;;;1.38;0.60;;;;;;;18.66;57.71;95240.78;10515585;28;20028;-30
2022/09/27 05:11:22;;;;;;;2.38;0.98;;;;;;;18.60;59.02;95251.03;10526007;28;20024;-31
2022/09/27 05:16:57;;;;;;;6.03;0.77;;;;;;;18.74;59.77;95255.81;10416220;28;20036;-29
2022/09/27 05:22:10;;;;;;;9.52;1.10;;;;;;;18.79;59.82;95259.06;10513439;28;20123;-30
2022/09/27 05:27:17;;;;;;;11.52;1.50;;;;;;;18.65;57.55;95261.91;10518877;28;20029;-29
2022/09/27 05:32:17;;;;;;;9.07;1.10;;;;;;;18.58;58.64;95272.25;10491467;28;20133;-30
2022/09/27 05:37:22;;;;;;;3.88;0.95;;;;;;;18.62;58.85;95289.03;10491611;28;20407;-30
2022/09/27 05:42:23;;;;;;;4.93;1.33;;;;;;;18.64;59.59;95293.22;10491879;28;20025;-30
2022/09/27 05:47:23;;;;;;;2.80;0.70;;;;;;;18.63;60.31;95300.84;10491395;28;20039;-30
2022/09/27 05:52:24;;;;;;;5.30;0.97;;;;;;;18.61;60.44;95297.50;10491294;28;20039;-30
2022/09/27 05:57:24;;;;;;;6.00;0.80;;;;;;;18.64;60.51;95310.09;10492652;28;20063;-30
2022/09/27 06:02:27;;;;;;;0.80;0.60;;;;;;;18.59;60.40;95304.31;10490925;28;20032;-30
2022/09/27 06:07:31;;;;;;;2.88;0.70;;;;;;;18.67;60.48;95332.88;10492374;28;20051;-30
2022/09/27 06:12:33;;;;;;;4.55;1.08;;;;;;;18.67;60.73;95332.88;10491890;28;20024;-30
2022/09/27 06:17:34;;;;;;;3.72;1.00;;;;;;;18.73;60.17;95327.63;10490722;28;20032;-30
2022/09/27 06:22:36;;;;;;;3.28;0.63;;;;;;;18.80;60.14;95329.16;10490736;28;20238;-30
2022/09/27 06:27:37;;;;;;;4.15;0.98;;;;;;;18.72;60.44;95341.19;10490780;28;20190;-30
2022/09/27 06:32:45;;;;;;;1.77;0.50;;;;;;;18.72;60.50;95356.41;10493947;28;20025;-30
2022/09/27 06:38:07;;;;;;;1.98;0.80;;;;;;;18.68;60.49;95364.94;10498433;28;20033;-29
2022/09/27 06:43:09;;;;;;;1.20;0.55;;;;;;;18.67;60.61;95374.25;10498214;28;20047;-31
2022/09/27 06:48:37;;;;;;;1.10;0.52;;;;;;;18.66;60.68;95369.22;10496868;28;20652;-30
2022/09/27 06:53:52;;;;;;;2.97;0.70;;;;;;;18.59;60.73;95360.09;10497925;28;20028;-30
2022/09/27 07:04:15;;;;;;;3.78;0.85;;;;;;;18.65;60.50;95375.97;10499098;28;20040;-30
2022/09/27 07:09:37;;;;;;;1.08;0.60;;;;;;;18.66;60.98;95371.75;10499406;28;20115;-30
2022/09/27 07:14:38;;;;;;;0.88;0.40;;;;;;;18.64;60.65;95368.41;10496562;28;20032;-30
2022/09/27 07:19:39;;;;;;;2.40;1.33;;;;;;;18.76;60.35;95373.22;10496669;28;20032;-30
2022/09/27 07:24:41;;;;;;;2.08;0.73;;;;;;;18.77;60.39;95380.78;10496558;28;20031;-31
2022/09/27 07:29:42;;;;;;;1.38;0.85;;;;;;;18.75;60.33;95389.31;10496913;28;20035;-31
2022/09/27 07:34:42;;;;;;;2.03;0.57;;;;;;;18.73;60.48;95388.47;10496493;28;20442;-30
2022/09/27 07:39:44;;;;;;;1.83;0.70;;;;;;;18.67;60.53;95386.91;10496607;28;20039;-30
2022/09/27 07:44:44;;;;;;;1.47;0.50;;;;;;;18.61;60.82;95371.03;10496694;28;20715;-30
2022/09/27 07:50:08;;;;;;;0.90;0.60;;;;;;;18.66;60.75;95386.97;10465648;28;20314;-31
2022/09/27 07:55:18;;;;;;;1.17;0.55;;;;;;;18.62;60.44;95383.66;10495813;28;20036;-30
2022/09/27 08:00:38;;;;;;;0.60;0.40;;;;;;;18.65;60.79;95392.88;10495431;28;20044;-31
2022/09/27 08:05:39;;;;;;;1.48;0.93;;;;;;;18.65;60.72;95400.47;10499984;28;20028;-31
2022/09/27 08:10:43;;;;;;;0.70;0.50;;;;;;;18.62;60.65;95410.69;10535782;28;20106;-30
2022/09/27 08:15:43;;;;;;;0.55;0.40;;;;;;;18.64;60.90;95419.09;10496090;28;20400;-30
2022/09/27 08:20:45;;;;;;;2.80;0.80;;;;;;;18.77;60.55;95415.44;10499917;28;20024;-32
2022/09/27 08:25:59;;;;;;;1.50;0.88;;;;;;;18.77;60.15;95420.53;10531178;28;20043;-30
2022/09/27 08:31:02;;;;;;;0.70;0.40;;;;;;;18.76;60.39;95429.81;10494025;28;20074;-30
2022/09/27 08:36:02;;;;;;;1.08;0.68;;;;;;;18.72;60.36;95428.22;10512572;28;20384;-30
2022/09/27 08:41:15;;;;;;;2.00;0.57;;;;;;;18.65;60.66;95446.13;10529645;28;20089;-30
2022/09/27 08:46:24;;;;;;;1.17;0.43;;;;;;;18.62;60.68;95447.03;10494562;28;20040;-30
2022/09/27 08:51:30;;;;;;;0.80;0.50;;;;;;;18.63;60.89;95458.00;10492298;28;20040;-30
2022/09/27 08:56:31;;;;;;;1.80;0.50;;;;;;;18.64;60.63;95478.25;10499911;28;20086;-30
2022/09/27 09:01:32;;;;;;;1.38;0.70;;;;;;;18.62;60.66;95469.84;10535374;28;20265;-30
2022/09/27 09:07:25;;;;;;;2.45;0.60;;;;;;;18.62;60.71;95462.25;10512091;28;20033;-30
2022/09/27 09:12:52;;;;;;;1.48;0.90;;;;;;;18.59;60.57;95456.41;10508174;28;20054;-30
2022/09/27 09:18:24;;;;;;;1.40;0.60;;;;;;;18.65;60.71;95456.25;10534403;28;20036;-31
2022/09/27 09:23:48;;;;;;;1.52;0.70;;;;;;;18.74;60.58;95446.78;10499813;28;20040;-31
2022/09/27 09:28:52;;;;;;;1.02;0.60;;;;;;;18.74;60.46;95444.22;10492404;28;20050;-30
2022/09/27 09:34:18;;;;;;;0.82;0.40;;;;;;;18.72;60.28;95453.56;10491787;28;20032;-30
2022/09/27 09:39:33;;;;;;;0.43;0.40;;;;;;;18.67;60.39;95444.41;10481337;28;20131;-30
2022/09/27 09:44:48;;;;;;;1.42;0.60;;;;;;;18.62;60.62;95430.97;10525450;28;20028;-30
2022/09/27 09:49:55;;;;;;;1.17;0.60;;;;;;;18.61;60.53;95434.38;10524823;28;20249;-32
2022/09/27 09:55:04;;;;;;;0.65;0.52;;;;;;;18.62;60.63;95438.59;10491194;28;20754;-30
2022/09/27 10:00:16;;;;;;;1.02;0.43;;;;;;;18.60;60.72;95432.72;10490167;28;20033;-31
2022/09/27 10:05:21;;;;;;;1.23;0.45;;;;;;;18.62;60.47;95436.06;10490402;28;20036;-30
2022/09/27 10:10:26;;;;;;;0.50;0.43;;;;;;;18.59;60.66;95421.72;10498933;28;20032;-32
2022/09/27 10:16:04;;;;;;;0.73;0.50;;;;;;;18.63;60.41;95425.88;10460101;28;20504;-30
2022/09/27 10:21:15;;;;;;;0.95;0.60;;;;;;;18.66;60.63;95422.47;10499810;28;20512;-30
2022/09/27 10:26:18;;;;;;;0.98;0.50;;;;;;;18.74;60.51;95425.66;10498690;28;20024;-30
2022/09/27 10:31:21;;;;;;;1.00;0.55;;;;;;;18.69;60.39;95400.41;10498671;28;20044;-30
2022/09/27 10:36:35;;;;;;;5.72;0.70;;;;;;;18.67;59.91;95409.72;10497641;28;20500;-30
2022/09/27 10:41:40;;;;;;;0.60;0.40;;;;;;;18.66;60.07;95395.41;10507200;28;20399;-30
2022/09/27 10:47:06;;;;;;;0.90;0.40;;;;;;;18.65;60.34;95401.34;10539969;28;20024;-30
2022/09/27 10:52:20;;;;;;;2.40;0.68;;;;;;;18.54;60.47;95377.94;10510076;28;20032;-30
2022/09/27 10:57:29;;;;;;;0.80;0.50;;;;;;;18.65;60.37;95393.72;10511494;28;20047;-30
2022/09/27 11:02:41;;;;;;;2.13;0.70;;;;;;;18.58;60.53;95379.50;10536111;28;20039;-30
2022/09/27 11:07:53;;;;;;;1.15;0.50;;;;;;;18.63;60.58;95387.03;10498283;28;20033;-31
2022/09/27 11:13:10;;;;;;;2.67;0.77;;;;;;;18.62;60.69;95386.19;10517249;28;20032;-29
2022/09/27 11:18:29;;;;;;;2.47;0.55;;;;;;;18.62;60.52;95385.34;10537862;28;20039;-30
2022/09/27 11:23:57;;;;;;;1.52;0.70;;;;;;;18.69;60.71;95377.59;10510043;28;20029;-30
2022/09/27 11:29:04;;;;;;;0.85;0.43;;;;;;;18.77;60.47;95373.16;10495876;28;20046;-30
2022/09/27 11:34:39;;;;;;;1.63;0.50;;;;;;;18.73;60.40;95373.25;10497031;28;20040;-30
2022/09/27 11:40:08;;;;;;;2.10;0.70;;;;;;;18.71;60.37;95362.34;10496122;28;20044;-31
2022/09/27 11:45:33;;;;;;;0.85;0.63;;;;;;;18.67;60.74;95353.16;10493972;28;20032;-30
2022/09/27 11:50:48;;;;;;;1.50;0.57;;;;;;;18.66;60.76;95341.34;10507202;28;20028;-30
2022/09/27 11:56:04;;;;;;;4.60;0.85;;;;;;;18.62;60.77;95342.25;10534115;28;20077;-31
2022/09/27 12:01:26;;;;;;;4.75;0.75;;;;;;;18.63;60.33;95357.44;10519776;28;20048;-31
2022/09/27 12:06:54;;;;;;;1.45;0.40;;;;;;;18.62;60.42;95344.81;10494697;28;20035;-30
2022/09/27 12:12:04;;;;;;;28.30;4.65;;;;;;;18.71;60.24;95344.59;10493989;28;20032;-30
2022/09/27 12:17:12;;;;;;;19.10;1.45;;;;;;;18.71;60.05;95342.06;10493485;28;20028;-31
2022/09/27 12:22:39;;;;;;;3.75;0.90;;;;;;;18.70;60.09;95337.84;10494057;28;20039;-30
2022/09/27 12:27:53;;;;;;;6.32;1.58;;;;;;;18.77;60.51;95324.19;10493324;28;20032;-30
2022/09/27 12:33:24;;;;;;;7.05;1.17;;;;;;;18.77;60.45;95329.25;10492671;28;20040;-30
2022/09/27 12:38:38;;;;;;;3.53;0.80;;;;;;;18.71;60.13;95337.00;10492778;28;20041;-31
2022/09/27 12:43:42;;;;;;;8.00;1.27;;;;;;;18.75;59.80;95328.47;10492731;28;20078;-30
2022/09/27 12:49:09;;;;;;;1.83;0.75;;;;;;;18.78;59.79;95321.63;10492414;28;20447;-29
2022/09/27 12:54:41;;;;;;;4.57;0.80;;;;;;;18.78;59.62;95313.16;10492142;28;20025;-30
2022/09/27 13:00:11;;;;;;;2.80;0.95;;;;;;;18.78;59.67;95310.63;10492125;28;20062;-30
2022/09/27 13:05:27;;;;;;;1.83;0.68;;;;;;;18.78;59.76;95331.75;10491555;28;20566;-30
2022/09/27 13:10:47;;;;;;;3.33;0.90;;;;;;;18.77;59.69;95340.22;10492655;28;20043;-31
2022/09/27 13:16:01;;;;;;;2.28;1.00;;;;;;;18.81;59.58;95335.91;10492077;28;20029;-30
2022/09/27 13:21:08;;;;;;;5.07;1.13;;;;;;;18.80;59.63;95351.97;10497054;28;20118;-30
2022/09/27 13:26:42;;;;;;;4.97;0.90;;;;;;;18.81;60.22;95353.66;10524476;28;20032;-30
2022/09/27 13:31:56;;;;;;;4.10;0.90;;;;;;;18.82;60.10;95342.66;10491810;28;20028;-30
2022/09/27 13:37:44;;;;;;;5.90;1.75;;;;;;;18.81;59.84;95353.66;10514714;28;20467;-30
2022/09/27 13:43:04;;;;;;;5.68;3.45;;;;;;;18.77;59.71;95357.13;10513016;28;20128;-30
2022/09/27 13:48:15;;;;;;;5.82;2.42;;;;;;;18.79;60.14;95363.00;10490904;28;20032;-30
2022/09/27 13:53:36;;;;;;;22.25;3.65;;;;;;;18.64;60.42;95366.72;10492665;28;20024;-30
2022/09/27 13:59:00;;;;;;;9.98;1.90;;;;;;;18.69;60.45;95361.53;10517288;28;20036;-31
2022/09/27 14:04:34;;;;;;;3.33;1.50;;;;;;;18.74;60.33;95364.81;10518871;28;20119;-30
2022/09/27 14:09:38;;;;;;;7.07;2.15;;;;;;;18.69;59.84;95374.22;10507253;28;20535;-30
2022/09/27 14:14:53;;;;;;;5.10;1.60;;;;;;;18.70;60.22;95363.22;10490467;28;20062;-30
2022/09/27 14:19:54;;;;;;;11.35;1.60;;;;;;;18.70;60.38;95355.59;10491099;28;20028;-31
2022/09/27 14:24:57;;;;;;;12.07;3.83;;;;;;;18.73;61.29;95358.06;10490834;28;20028;-30
2022/09/27 14:30:18;;;;;;;7.47;2.65;;;;;;;18.80;61.70;95367.19;10490541;28;20036;-30
2022/09/27 14:41:06;;;;;;;3.83;1.60;;;;;;;18.74;60.60;95364.81;10385989;28;20132;-31
2022/09/27 14:46:07;;;;;;;5.70;2.10;;;;;;;18.57;59.61;95359.28;10469351;28;20097;-31
2022/09/27 14:51:10;;;;;;;7.27;2.13;;;;;;;18.59;60.48;95352.47;10489219;28;20073;-29
2022/09/27 14:56:26;;;;;;;5.13;1.98;;;;;;;18.65;60.66;95347.25;10497811;28;20427;-31
2022/09/27 15:01:27;;;;;;;6.45;1.98;;;;;;;18.66;60.47;95343.88;10499394;28;20041;-31
2022/09/27 15:06:28;;;;;;;3.92;1.50;;;;;;;18.67;60.69;95346.34;10498714;28;20483;-30
2022/09/27 15:11:33;;;;;;;10.30;2.03;;;;;;;18.59;60.07;95347.41;10522020;28;20056;-30
2022/09/27 15:16:33;;;;;;;8.20;1.88;;;;;;;18.62;60.77;95334.66;10499890;28;20047;-29
2022/09/27 15:21:36;;;;;;;5.00;1.70;;;;;;;18.62;60.69;95324.53;10510706;28;20043;-30
2022/09/27 15:26:41;;;;;;;2.78;1.10;;;;;;;18.66;60.85;95328.66;10517353;28;20500;-31
2022/09/27 15:31:42;;;;;;;7.28;2.17;;;;;;;18.71;61.27;95337.00;10521516;28;20450;-30
2022/09/27 15:36:53;;;;;;;5.80;1.50;;;;;;;18.74;60.99;95339.47;10514078;28;20097;-30
2022/09/27 15:42:05;;;;;;;7.43;1.83;;;;;;;18.74;60.99;95354.69;10507624;28;20790;-31
2022/09/27 15:47:38;;;;;;;3.22;2.03;;;;;;;18.67;60.76;95350.63;10518130;28;20121;-30
2022/09/27 15:52:49;;;;;;;7.20;1.42;;;;;;;18.65;60.96;95347.25;10518351;28;20505;-30
2022/09/27 15:57:58;;;;;;;4.63;1.35;;;;;;;18.64;61.28;95348.97;10512392;28;20040;-31
2022/09/27 16:02:59;;;;;;;3.20;1.10;;;;;;;18.66;61.34;95352.31;10513125;28;20032;-31
2022/09/27 16:08:00;;;;;;;7.87;1.53;;;;;;;18.53;57.60;95355.16;10516948;28;20031;-31
2022/09/27 16:13:00;;;;;;;6.32;1.63;;;;;;;18.56;59.99;95362.66;10512524;28;20289;-30
2022/09/27 16:18:00;;;;;;;6.17;1.57;;;;;;;18.58;61.26;95364.31;10505154;28;20037;-31
2022/09/27 16:23:01;;;;;;;6.07;1.73;;;;;;;18.60;61.06;95367.63;10510291;28;20036;-31
2022/09/27 16:28:03;;;;;;;6.60;1.90;;;;;;;18.59;62.03;95373.56;10512386;28;20071;-30
2022/09/27 16:33:04;;;;;;;4.80;1.42;;;;;;;18.69;62.35;95376.75;10510413;28;20056;-31
2022/09/27 16:38:04;;;;;;;7.00;1.60;;;;;;;18.58;61.95;95343.22;10516206;28;20074;-31
2022/09/27 16:43:06;;;;;;;6.40;1.80;;;;;;;18.70;61.78;95369.13;10510070;28;20439;-31
2022/09/27 16:48:06;;;;;;;6.10;2.20;;;;;;;18.63;61.92;95372.66;10505960;28;20498;-30
2022/09/27 16:53:07;;;;;;;6.57;1.73;;;;;;;18.65;61.58;95370.06;10508823;28;20171;-31
2022/09/27 16:58:07;;;;;;;3.22;1.67;;;;;;;18.68;61.39;95375.09;10504034;28;20036;-32
2022/09/27 17:03:08;;;;;;;11.57;1.98;;;;;;;18.69;61.31;95371.69;10509949;28;20519;-31
2022/09/27 17:08:09;;;;;;;4.95;1.30;;;;;;;18.68;61.54;95365.78;10511076;28;20028;-28
2022/09/27 17:13:09;;;;;;;13.77;2.08;;;;;;;18.66;61.55;95376.84;10502065;28;20032;-28
2022/09/27 17:18:10;;;;;;;6.40;1.60;;;;;;;18.68;60.51;95367.47;10508261;28;20043;-28
2022/09/27 17:23:12;;;;;;;6.68;1.30;;;;;;;18.73;60.43;95370.72;10509495;28;20071;-28
2022/09/27 17:28:12;;;;;;;3.10;1.40;;;;;;;18.71;60.13;95364.88;10508476;28;20043;-30
2022/09/27 17:33:13;;;;;;;7.50;2.53;;;;;;;18.78;63.33;95371.47;10510928;28;20883;-31
2022/09/27 17:38:13;;;;;;;7.57;1.52;;;;;;;18.74;63.25;95359.75;10505560;28;20657;-30
2022/09/27 17:43:14;;;;;;;8.05;1.92;;;;;;;18.75;62.92;95371.56;10501272;28;20090;-31
2022/09/27 17:53:33;;;;;;;9.93;1.60;;;;;;;18.69;62.99;95367.47;10501038;28;20029;-30
2022/09/27 17:58:34;;;;;;;7.73;1.93;;;;;;;18.68;63.25;95370.03;10499736;28;20082;-30
2022/09/27 18:03:34;;;;;;;4.55;1.33;;;;;;;18.67;62.89;95363.28;10501539;28;20496;-31
2022/09/27 18:08:35;;;;;;;5.80;1.97;;;;;;;18.65;63.24;95365.84;10500071;28;20612;-31
2022/09/27 18:13:39;;;;;;;5.32;1.70;;;;;;;18.64;63.08;95376.00;10496460;28;20040;-30
2022/09/27 18:18:41;;;;;;;4.93;1.33;;;;;;;18.67;63.24;95376.78;10499341;28;20534;-31
2022/09/27 18:23:43;;;;;;;4.20;1.48;;;;;;;18.65;63.27;95377.66;10499848;28;20033;-30
2022/09/27 18:28:43;;;;;;;4.18;2.08;;;;;;;18.69;61.88;95381.81;10500548;28;20048;-32
2022/09/27 18:33:44;;;;;;;6.50;3.03;;;;;;;18.71;63.88;95380.09;10500601;28;20506;-30
2022/09/27 18:38:45;;;;;;;2.65;1.35;;;;;;;18.78;63.34;95372.31;10506766;28;20172;-31
2022/09/27 18:43:46;;;;;;;4.40;2.28;;;;;;;18.74;63.35;95369.91;10500722;28;20036;-30
2022/09/27 18:48:47;;;;;;;4.72;1.33;;;;;;;18.73;62.66;95368.19;10504584;28;20048;-30
2022/09/27 18:53:47;;;;;;;5.07;1.97;;;;;;;18.71;63.06;95375.00;10510696;28;20044;-31
2022/09/27 18:58:48;;;;;;;3.33;1.60;;;;;;;18.68;63.09;95372.56;10508378;28;20047;-31
2022/09/27 19:03:48;;;;;;;4.40;1.63;;;;;;;18.68;62.43;95362.41;10502486;28;20488;-31
2022/09/27 19:08:57;;;;;;;5.55;1.45;;;;;;;18.73;61.05;95369.03;10520241;28;20033;-31
2022/09/27 19:13:57;;;;;;;4.97;1.30;;;;;;;18.66;61.91;95374.31;10510022;28;20451;-30
2022/09/27 19:18:58;;;;;;;5.00;1.40;;;;;;;18.65;62.49;95373.44;10507473;28;20044;-30
2022/09/27 19:23:58;;;;;;;5.17;1.67;;;;;;;18.61;62.49;95384.53;10510635;28;20805;-31
2022/09/27 19:29:00;;;;;;;3.73;1.50;;;;;;;18.55;63.10;95378.75;10509818;28;20306;-30
2022/09/27 19:34:00;;;;;;;4.22;1.70;;;;;;;18.64;62.75;95373.47;10507160;28;20036;-31
2022/09/27 19:39:01;;;;;;;7.60;2.00;;;;;;;18.72;64.01;95374.13;10510610;28;20549;-30
2022/09/27 19:44:01;;;;;;;3.97;1.77;;;;;;;18.73;63.73;95360.59;10504143;28;20040;-30
2022/09/27 19:49:01;;;;;;;4.20;1.50;;;;;;;18.73;61.37;95342.84;10500150;28;20291;-30
2022/09/27 19:54:03;;;;;;;5.27;1.50;;;;;;;18.76;61.54;95352.94;10506713;28;20028;-30
2022/09/27 19:59:03;;;;;;;6.82;2.00;;;;;;;18.75;62.13;95371.56;10502529;28;20310;-31
2022/09/27 20:04:03;;;;;;;5.43;1.27;;;;;;;18.76;61.51;95365.63;10506876;28;20046;-31
2022/09/27 20:09:04;;;;;;;3.20;1.60;;;;;;;18.75;62.20;95363.94;10507148;28;20032;-30
2022/09/27 20:14:04;;;;;;;2.10;1.23;;;;;;;18.74;62.07;95367.34;10507682;28;20377;-31
2022/09/27 20:19:05;;;;;;;5.07;1.43;;;;;;;18.75;61.49;95361.41;10506917;28;20044;-30
2022/09/27 20:24:05;;;;;;;3.30;1.10;;;;;;;18.74;62.71;95362.28;10502187;28;20074;-31
2022/09/27 20:29:05;;;;;;;6.37;2.13;;;;;;;18.71;62.17;95340.38;10507910;28;20282;-31
2022/09/27 20:34:09;;;;;;;6.67;2.23;;;;;;;18.72;62.28;95348.78;10506248;28;20155;-31
2022/09/27 20:39:11;;;;;;;4.35;1.38;;;;;;;18.77;63.16;95339.38;10511788;28;20405;-30
2022/09/27 20:44:14;;;;;;;5.30;1.40;;;;;;;18.77;63.46;95341.94;10512113;28;20036;-31
2022/09/27 20:49:17;;;;;;;3.80;1.40;;;;;;;18.79;62.46;95332.56;10512120;28;20024;-30
2022/09/27 20:54:17;;;;;;;3.35;1.33;;;;;;;18.74;62.74;95319.19;10508616;28;20036;-31
2022/09/27 20:59:20;;;;;;;5.85;1.60;;;;;;;18.73;62.74;95314.97;10505584;28;20503;-31
2022/09/27 21:04:21;;;;;;;5.03;1.40;;;;;;;18.73;62.65;95299.75;10504781;28;20225;-31
2022/09/27 21:09:21;;;;;;;5.25;1.40;;;;;;;18.73;62.43;95313.28;10510914;28;20127;-31
2022/09/27 21:14:21;;;;;;;3.33;1.10;;;;;;;18.71;62.43;95309.09;10511735;28;20131;-33
2022/09/27 21:19:22;;;;;;;3.07;1.23;;;;;;;18.70;62.72;95295.59;10502658;28;20032;-31
2022/09/27 21:24:22;;;;;;;5.00;1.80;;;;;;;18.70;62.86;95294.75;10505083;28;20089;-31
2022/09/27 21:29:22;;;;;;;3.90;1.30;;;;;;;18.69;62.69;95291.41;10503232;28;20037;-31
2022/09/27 21:34:23;;;;;;;3.43;1.33;;;;;;;18.67;62.71;95287.25;10507107;28;20170;-31
2022/09/27 21:39:23;;;;;;;4.17;1.33;;;;;;;18.71;63.61;95294.75;10506170;28;20040;-31
2022/09/27 21:44:24;;;;;;;5.20;2.07;;;;;;;18.73;63.98;95271.88;10508302;28;20032;-30
2022/09/27 21:49:24;;;;;;;5.33;1.50;;;;;;;18.76;62.71;95271.81;10506425;28;20629;-32
2022/09/27 21:54:24;;;;;;;4.83;1.37;;;;;;;18.72;62.59;95270.19;10509617;28;20223;-30
2022/09/27 21:59:25;;;;;;;5.47;1.37;;;;;;;18.71;62.62;95276.16;10504851;28;20632;-30
2022/09/27 22:04:25;;;;;;;3.30;2.00;;;;;;;18.70;62.23;95265.19;10514161;28;20091;-31
2022/09/27 22:09:25;;;;;;;3.57;1.13;;;;;;;18.68;62.43;95244.09;10517769;28;20081;-31
2022/09/27 22:14:26;;;;;;;3.30;1.03;;;;;;;18.68;62.54;95233.13;10521718;28;20040;-30
2022/09/27 22:19:26;;;;;;;2.83;1.13;;;;;;;18.66;62.58;95238.22;10515746;28;20328;-32
2022/09/27 22:24:26;;;;;;;3.87;1.40;;;;;;;18.64;62.47;95249.28;10517475;28;20074;-32
2022/09/27 22:29:27;;;;;;;2.90;1.20;;;;;;;18.65;62.41;95233.19;10514741;28;20040;-30
2022/09/27 22:34:27;;;;;;;5.37;1.40;;;;;;;18.59;62.32;95202.94;10518847;28;20032;-31
2022/09/27 22:39:28;;;;;;;3.95;1.40;;;;;;;18.66;62.71;95200.22;10518090;28;20294;-31
2022/09/27 22:44:30;;;;;;;2.75;1.45;;;;;;;18.71;63.29;95205.16;10524760;28;20040;-30
2022/09/27 22:49:30;;;;;;;3.90;1.25;;;;;;;18.72;63.37;95189.09;10516707;28;20078;-30
2022/09/27 22:54:30;;;;;;;4.33;1.20;;;;;;;18.71;62.48;95172.22;10519023;28;20067;-30
2022/09/27 22:59:31;;;;;;;4.23;1.10;;;;;;;18.67;62.44;95160.50;10522168;28;20032;-31
2022/09/27 23:04:31;;;;;;;3.73;1.30;;;;;;;18.68;62.35;95175.66;10523642;28;20101;-32
2022/09/27 23:09:32;;;;;;;1.90;1.35;;;;;;;18.63;62.48;95163.97;10522735;28;20036;-30
2022/09/27 23:14:32;;;;;;;2.90;1.23;;;;;;;18.60;62.65;95162.34;10516159;28;20036;-31
2022/09/27 23:19:33;;;;;;;5.13;1.10;;;;;;;18.55;62.81;95143.91;10508137;28;20097;-31
2022/09/27 23:24:33;;;;;;;3.50;1.10;;;;;;;18.53;62.85;95129.59;10508759;28;20036;-31
2022/09/27 23:29:34;;;;;;;3.53;1.13;;;;;;;18.56;62.60;95139.66;10512053;28;20043;-31
2022/09/27 23:34:34;;;;;;;2.90;1.10;;;;;;;18.54;62.77;95111.81;10521563;28;20114;-30
2022/09/27 23:39:34;;;;;;;2.27;1.40;;;;;;;18.54;62.68;95114.38;10524626;28;20039;-31
2022/09/27 23:44:35;;;;;;;2.90;0.97;;;;;;;18.65;63.28;95106.47;10502621;28;20854;-31
2022/09/27 23:49:35;;;;;;;3.27;1.33;;;;;;;18.69;63.18;95093.69;10515579;28;20058;-30
2022/09/27 23:54:36;;;;;;;2.33;1.05;;;;;;;18.64;62.42;95079.44;10517685;28;20040;-31
2022/09/27 23:59:37;;;;;;;3.77;0.97;;;;;;;18.64;62.79;95084.53;10508573;28;20039;-30
